Time;durP1;ratioP1;P1;durP2;ratioP2;P2;SDS_P1;SDS_P2;PMS_P1;PMS_P2;Temp;Humidity;BMP_temperature;BMP_pressure;BME280_temperature;BME280_humidity;BME280_pressure;Samples;Min_cycle;Max_cycle;Signal;HPM_P1;HPM_P2
2022/06/26 00:01:41;;;;;;;22.17;13.70;;;17.40;99.90;;;;;;5034977;28;20558;-90
2022/06/26 00:04:07;;;;;;;14.53;12.87;;;17.40;99.90;;;;;;5034785;28;20254;-90
2022/06/26 00:06:32;;;;;;;18.67;11.83;;;17.40;99.90;;;;;;5037257;28;20730;-88
2022/06/26 00:08:58;;;;;;;17.13;13.00;;;17.40;99.90;;;;;;5037345;28;20181;-88
2022/06/26 00:11:24;;;;;;;15.50;11.83;;;17.40;99.90;;;;;;5041373;28;20175;-89
2022/06/26 00:13:50;;;;;;;14.60;12.00;;;17.40;99.90;;;;;;5055859;28;20173;-89
2022/06/26 00:16:16;;;;;;;14.93;11.98;;;17.40;99.90;;;;;;5038080;28;20556;-90
2022/06/26 00:18:42;;;;;;;14.98;10.70;;;17.30;99.90;;;;;;5037140;28;20199;-90
2022/06/26 00:21:09;;;;;;;17.80;12.10;;;17.30;99.90;;;;;;5037275;28;20173;-90
2022/06/26 00:23:35;;;;;;;14.93;11.73;;;17.30;99.90;;;;;;5055907;28;20420;-90
2022/06/26 00:26:02;;;;;;;19.43;12.27;;;17.20;99.90;;;;;;5038595;28;20749;-91
2022/06/26 00:28:27;;;;;;;14.45;12.05;;;17.20;99.90;;;;;;5049005;28;20447;-90
2022/06/26 00:30:53;;;;;;;21.13;12.23;;;17.10;99.90;;;;;;5038344;28;20196;-89
2022/06/26 00:33:19;;;;;;;16.97;11.00;;;17.20;99.90;;;;;;5037405;28;20192;-89
2022/06/26 00:35:44;;;;;;;26.10;14.70;;;17.10;99.90;;;;;;5037466;28;20280;-89
2022/06/26 00:38:10;;;;;;;27.50;14.97;;;17.10;99.90;;;;;;5036848;28;20238;-89
2022/06/26 00:40:36;;;;;;;15.90;11.70;;;17.10;99.90;;;;;;5037033;28;20209;-89
2022/06/26 00:43:02;;;;;;;14.13;11.30;;;17.00;99.60;;;;;;5023414;28;20185;-89
2022/06/26 00:45:27;;;;;;;15.43;11.50;;;17.10;99.90;;;;;;5017424;28;20209;-90
2022/06/26 00:47:53;;;;;;;17.10;12.90;;;17.00;99.70;;;;;;5017082;28;20178;-90
2022/06/26 00:50:19;;;;;;;15.17;11.10;;;17.00;99.80;;;;;;5035563;28;20185;-90
2022/06/26 00:52:45;;;;;;;12.87;10.97;;;17.00;99.90;;;;;;5017575;28;20595;-89
2022/06/26 00:55:24;;;;;;;20.25;12.93;;;17.00;99.70;;;;;;5017648;28;20208;-90
2022/06/26 00:57:51;;;;;;;13.73;11.10;;;17.00;99.70;;;;;;5016875;28;20713;-90
2022/06/26 01:00:20;;;;;;;14.50;11.60;;;17.00;99.90;;;;;;5017356;28;20205;-90
2022/06/26 01:02:46;;;;;;;15.85;11.38;;;16.90;99.70;;;;;;5017263;28;20654;-90
2022/06/26 01:05:12;;;;;;;16.27;10.77;;;16.90;99.80;;;;;;5016879;28;20229;-89
2022/06/26 01:07:38;;;;;;;14.50;11.18;;;16.90;99.80;;;;;;5016667;28;20428;-89
2022/06/26 01:10:05;;;;;;;14.27;11.00;;;16.90;99.50;;;;;;5017266;28;20281;-89
2022/06/26 01:12:31;;;;;;;16.27;10.52;;;16.90;99.50;;;;;;5017027;28;20273;-91
2022/06/26 01:14:58;;;;;;;16.15;11.02;;;16.90;99.70;;;;;;5017648;28;20185;-89
2022/06/26 01:17:24;;;;;;;14.43;10.90;;;16.90;99.50;;;;;;5050099;28;20196;-89
2022/06/26 01:19:50;;;;;;;12.70;10.82;;;16.90;99.50;;;;;;5017963;28;20678;-89
2022/06/26 01:22:16;;;;;;;11.90;10.03;;;16.90;99.40;;;;;;5034957;28;20174;-88
2022/06/26 01:24:41;;;;;;;23.10;10.73;;;17.00;99.20;;;;;;5017570;28;20917;-89
2022/06/26 01:27:07;;;;;;;13.63;9.87;;;16.90;98.40;;;;;;5017179;28;20226;-89
2022/06/26 01:29:33;;;;;;;14.83;10.43;;;16.90;98.50;;;;;;5039533;28;20189;-90
2022/06/26 01:31:59;;;;;;;18.33;10.47;;;17.00;98.60;;;;;;5039271;28;20173;-90
2022/06/26 01:34:25;;;;;;;13.57;10.00;;;16.90;98.40;;;;;;5036700;28;20185;-90
2022/06/26 01:36:50;;;;;;;9.20;7.80;;;16.90;98.50;;;;;;5030159;28;20532;-90
2022/06/26 01:39:20;;;;;;;13.03;9.70;;;16.90;98.50;;;;;;5016419;28;20463;-89
2022/06/26 01:41:47;;;;;;;19.73;11.45;;;16.80;97.90;;;;;;5016403;28;20177;-89
2022/06/26 01:44:13;;;;;;;17.58;9.20;;;16.80;97.70;;;;;;5028428;28;20177;-89
2022/06/26 01:46:39;;;;;;;10.93;8.83;;;16.80;97.50;;;;;;5035827;28;20676;-89
2022/06/26 01:49:05;;;;;;;15.10;9.87;;;16.80;97.50;;;;;;5020169;28;20456;-89
2022/06/26 01:51:31;;;;;;;12.32;10.30;;;16.80;97.10;;;;;;5036219;28;20232;-90
2022/06/26 01:53:57;;;;;;;12.10;8.17;;;16.70;96.80;;;;;;5054191;28;20703;-89
2022/06/26 01:56:23;;;;;;;13.80;10.07;;;16.70;96.70;;;;;;5035966;28;20725;-89
2022/06/26 01:58:49;;;;;;;11.50;8.13;;;16.80;96.60;;;;;;5053374;28;20524;-90
2022/06/26 02:01:14;;;;;;;15.90;8.40;;;16.70;96.40;;;;;;5036401;28;20412;-90
2022/06/26 02:03:40;;;;;;;13.63;8.73;;;16.70;96.10;;;;;;5036117;28;20721;-90
2022/06/26 02:06:06;;;;;;;12.80;8.17;;;16.60;96.10;;;;;;5036213;28;20193;-90
2022/06/26 02:08:31;;;;;;;11.00;7.63;;;16.60;96.00;;;;;;5053289;28;20174;-89
2022/06/26 02:13:42;;;;;;;10.35;8.65;;;16.50;95.80;;;;;;5054201;28;20167;-90
2022/06/26 02:16:19;;;;;;;14.13;9.57;;;16.40;95.80;;;;;;5019340;28;20303;-90
2022/06/26 02:18:51;;;;;;;9.20;7.55;;;16.50;96.00;;;;;;5035144;28;20865;-90
2022/06/26 02:21:19;;;;;;;13.73;7.88;;;16.40;96.00;;;;;;5028215;28;20182;-91
2022/06/26 02:23:47;;;;;;;13.40;8.20;;;16.40;95.90;;;;;;5045736;28;20174;-90
2022/06/26 02:26:14;;;;;;;12.20;8.75;;;16.40;96.00;;;;;;5020650;28;20198;-90
2022/06/26 02:28:40;;;;;;;10.00;8.10;;;16.40;96.00;;;;;;5031933;28;20279;-89
2022/06/26 02:31:06;;;;;;;10.70;7.32;;;16.40;95.90;;;;;;5053645;28;20181;-89
2022/06/26 02:33:34;;;;;;;10.82;8.30;;;16.40;96.00;;;;;;5038422;28;20559;-89
2022/06/26 02:36:00;;;;;;;12.10;8.07;;;16.40;95.70;;;;;;5015845;28;20205;-90
2022/06/26 02:38:26;;;;;;;11.02;7.13;;;16.40;95.90;;;;;;5026876;28;20641;-89
2022/06/26 02:40:52;;;;;;;8.63;7.20;;;16.40;95.70;;;;;;5024900;28;20206;-89
2022/06/26 02:43:19;;;;;;;10.07;7.53;;;16.40;95.50;;;;;;5028790;28;20178;-89
2022/06/26 02:45:45;;;;;;;9.02;7.47;;;16.30;95.60;;;;;;5023684;28;20936;-89
2022/06/26 02:48:11;;;;;;;10.30;7.40;;;16.30;95.50;;;;;;5019400;28;20328;-91
2022/06/26 02:50:37;;;;;;;9.43;6.60;;;16.30;95.00;;;;;;5049861;28;20814;-90
2022/06/26 02:53:04;;;;;;;9.27;6.67;;;16.40;94.10;;;;;;5023409;28;20428;-89
2022/06/26 02:55:30;;;;;;;8.65;6.55;;;16.40;93.00;;;;;;5015190;28;20549;-90
2022/06/26 02:57:56;;;;;;;8.48;7.28;;;16.30;93.30;;;;;;5035321;28;20737;-90
2022/06/26 03:00:23;;;;;;;9.73;8.13;;;16.30;93.70;;;;;;5030811;28;20327;-89
2022/06/26 03:02:49;;;;;;;9.20;6.85;;;16.30;93.60;;;;;;5026429;28;20583;-89
2022/06/26 03:05:15;;;;;;;9.00;7.10;;;16.30;93.90;;;;;;5035430;28;20189;-90
2022/06/26 03:07:40;;;;;;;8.60;6.67;;;16.30;94.00;;;;;;5018599;28;20177;-90
2022/06/26 03:10:07;;;;;;;11.30;7.77;;;16.20;94.10;;;;;;5027297;28;20428;-89
2022/06/26 03:12:33;;;;;;;8.60;7.07;;;16.20;94.20;;;;;;5022075;28;20188;-89
2022/06/26 03:14:59;;;;;;;10.02;7.45;;;16.20;94.60;;;;;;5017119;28;20182;-89
2022/06/26 03:17:25;;;;;;;9.70;7.03;;;16.20;94.50;;;;;;5040748;28;20258;-89
2022/06/26 03:19:50;;;;;;;10.93;6.97;;;16.20;94.90;;;;;;5050458;28;20236;-89
2022/06/26 03:22:17;;;;;;;9.77;8.00;;;16.20;94.40;;;;;;5022501;28;20932;-89
2022/06/26 03:24:42;;;;;;;10.45;7.47;;;16.20;94.40;;;;;;5032796;28;20196;-89
2022/06/26 03:27:08;;;;;;;9.83;7.60;;;16.20;95.00;;;;;;5033209;28;20220;-89
2022/06/26 03:29:34;;;;;;;11.17;7.60;;;16.10;94.40;;;;;;5015409;28;20178;-90
2022/06/26 03:32:00;;;;;;;9.23;7.80;;;16.10;94.50;;;;;;5014894;28;20218;-89
2022/06/26 03:34:25;;;;;;;8.73;7.50;;;16.20;94.50;;;;;;5022001;28;20423;-89
2022/06/26 03:36:51;;;;;;;10.70;7.80;;;16.10;94.30;;;;;;5028497;28;20205;-89
2022/06/26 03:39:17;;;;;;;9.23;6.20;;;16.10;94.40;;;;;;5024401;28;20212;-89
2022/06/26 03:41:57;;;;;;;10.90;7.10;;;16.20;94.60;;;;;;5032964;28;20185;-89
2022/06/26 03:44:24;;;;;;;10.75;6.97;;;16.20;94.70;;;;;;5019019;28;20187;-89
2022/06/26 03:46:50;;;;;;;14.52;7.80;;;16.20;94.80;;;;;;5017788;28;20753;-89
2022/06/26 03:49:16;;;;;;;10.20;6.95;;;16.30;94.80;;;;;;5044127;28;20189;-89
2022/06/26 03:51:42;;;;;;;9.43;7.60;;;16.30;94.70;;;;;;5038584;28;20185;-91
2022/06/26 03:54:07;;;;;;;12.97;7.77;;;16.40;94.60;;;;;;5012175;28;20750;-91
2022/06/26 03:56:33;;;;;;;12.90;6.07;;;16.50;93.30;;;;;;5034083;28;20209;-91
2022/06/26 03:58:59;;;;;;;6.87;5.90;;;16.60;92.30;;;;;;5033570;28;20285;-91
2022/06/26 04:01:25;;;;;;;7.57;6.70;;;16.70;91.60;;;;;;5043687;28;20180;-90
2022/06/26 04:03:50;;;;;;;8.37;6.63;;;16.70;91.20;;;;;;5019749;28;20690;-91
2022/06/26 04:06:16;;;;;;;11.93;5.73;;;16.70;91.10;;;;;;5044810;28;20224;-91
2022/06/26 04:08:42;;;;;;;9.50;6.13;;;16.60;91.10;;;;;;5035966;28;20209;-90
2022/06/26 04:11:07;;;;;;;8.23;6.50;;;16.70;91.30;;;;;;5038872;28;20177;-91
2022/06/26 04:13:33;;;;;;;6.37;4.97;;;16.70;91.30;;;;;;5023857;28;20178;-91
2022/06/26 04:15:59;;;;;;;11.97;5.83;;;16.70;90.40;;;;;;5041292;28;20251;-90
2022/06/26 04:18:24;;;;;;;7.33;5.60;;;16.80;89.20;;;;;;5033239;28;20185;-91
2022/06/26 04:20:50;;;;;;;8.03;5.83;;;16.80;88.50;;;;;;5035050;28;20216;-90
2022/06/26 04:23:16;;;;;;;7.33;5.50;;;16.70;89.50;;;;;;5036912;28;20174;-89
2022/06/26 04:25:42;;;;;;;8.03;6.20;;;16.70;89.60;;;;;;5022228;28;20201;-89
2022/06/26 04:28:08;;;;;;;6.20;5.60;;;16.70;89.80;;;;;;5050924;28;20552;-90
2022/06/26 04:30:33;;;;;;;12.13;6.60;;;16.60;90.00;;;;;;5018019;28;20417;-91
2022/06/26 04:32:59;;;;;;;9.00;7.40;;;16.70;90.20;;;;;;5025568;28;20703;-90
2022/06/26 04:35:25;;;;;;;6.90;6.20;;;16.60;90.30;;;;;;5026852;28;20200;-91
2022/06/26 04:37:51;;;;;;;7.70;5.40;;;16.50;90.60;;;;;;5036909;28;20176;-90
2022/06/26 04:40:16;;;;;;;8.47;6.53;;;16.60;90.90;;;;;;5054530;28;20201;-90
2022/06/26 04:42:43;;;;;;;9.80;5.80;;;16.70;91.00;;;;;;5017589;28;20174;-92
2022/06/26 04:45:10;;;;;;;7.65;5.25;;;16.70;90.90;;;;;;5018367;28;20178;-91
2022/06/26 04:47:36;;;;;;;9.55;6.70;;;16.80;90.80;;;;;;5017733;28;20186;-90
2022/06/26 04:50:04;;;;;;;11.25;5.25;;;16.70;90.70;;;;;;5017824;28;20185;-92
2022/06/26 04:52:29;;;;;;;7.10;5.70;;;16.80;90.90;;;;;;5052639;28;20181;-91
2022/06/26 04:54:56;;;;;;;8.20;5.40;;;16.90;90.40;;;;;;5033726;28;20514;-91
2022/06/26 04:57:22;;;;;;;8.68;6.85;;;17.00;90.10;;;;;;5017224;28;20579;-90
2022/06/26 04:59:48;;;;;;;8.97;6.37;;;17.00;90.20;;;;;;5025733;28;20209;-90
2022/06/26 05:02:15;;;;;;;9.48;5.90;;;17.10;89.90;;;;;;5017912;28;20232;-91
2022/06/26 05:04:41;;;;;;;9.57;5.18;;;17.20;90.00;;;;;;5034870;28;20201;-91
2022/06/26 05:07:06;;;;;;;9.37;5.30;;;17.50;88.70;;;;;;5055091;28;20251;-91
2022/06/26 05:09:32;;;;;;;7.20;5.70;;;17.40;87.90;;;;;;5055354;28;20234;-91
2022/06/26 05:12:07;;;;;;;8.00;5.20;;;17.40;87.90;;;;;;5026234;28;20197;-91
2022/06/26 05:14:33;;;;;;;8.43;5.07;;;17.50;87.80;;;;;;5049769;28;20664;-91
2022/06/26 05:16:58;;;;;;;7.43;5.63;;;17.40;87.50;;;;;;5034137;28;20228;-91
2022/06/26 05:19:24;;;;;;;11.00;6.17;;;17.30;87.70;;;;;;5016510;28;20289;-90
2022/06/26 05:21:52;;;;;;;5.80;5.00;;;17.30;87.70;;;;;;5031317;28;20177;-91
2022/06/26 05:24:18;;;;;;;5.97;5.25;;;17.40;87.20;;;;;;5042366;28;20170;-91
2022/06/26 05:26:44;;;;;;;7.00;4.65;;;17.30;87.30;;;;;;5030963;28;20213;-90
2022/06/26 05:29:14;;;;;;;11.53;4.77;;;17.40;87.40;;;;;;5036896;28;20645;-90
2022/06/26 05:31:40;;;;;;;7.97;4.78;;;17.40;87.20;;;;;;5054629;28;20173;-91
2022/06/26 05:34:05;;;;;;;9.80;5.40;;;17.40;87.20;;;;;;5036175;28;20181;-91
2022/06/26 05:36:31;;;;;;;7.80;4.97;;;17.30;87.10;;;;;;5026853;28;20201;-91
2022/06/26 05:38:57;;;;;;;6.00;4.13;;;17.30;87.40;;;;;;5036309;28;20537;-91
2022/06/26 05:41:22;;;;;;;5.80;4.10;;;17.40;87.70;;;;;;5016671;28;20188;-90
2022/06/26 05:43:48;;;;;;;5.00;3.93;;;17.70;87.40;;;;;;5033086;28;20703;-90
2022/06/26 05:46:14;;;;;;;5.30;4.80;;;17.90;86.70;;;;;;5036300;28;20197;-91
2022/06/26 05:48:42;;;;;;;4.80;3.83;;;18.10;84.90;;;;;;5018837;28;20181;-91
2022/06/26 05:51:08;;;;;;;9.50;4.75;;;18.30;83.50;;;;;;5036101;28;20583;-90
2022/06/26 05:53:34;;;;;;;7.78;4.55;;;18.40;82.50;;;;;;5053754;28;20235;-91
2022/06/26 05:56:00;;;;;;;5.97;4.33;;;18.30;82.90;;;;;;5035598;28;20185;-91
2022/06/26 05:58:25;;;;;;;6.30;4.60;;;18.20;82.80;;;;;;5036011;28;20173;-90
2022/06/26 06:00:51;;;;;;;9.90;5.00;;;18.00;83.90;;;;;;5037423;28;20197;-92
2022/06/26 06:03:45;;;;;;;5.73;4.40;;;18.00;83.50;;;;;;5029537;28;20174;-92
2022/06/26 06:06:11;;;;;;;7.45;5.45;;;18.00;84.10;;;;;;5032786;28;20232;-90
2022/06/26 06:08:37;;;;;;;6.57;5.30;;;18.10;83.90;;;;;;5032186;28;20201;-90
2022/06/26 06:11:02;;;;;;;10.93;5.20;;;18.20;83.70;;;;;;5032070;28;20189;-90
2022/06/26 06:13:28;;;;;;;10.10;5.00;;;18.30;83.70;;;;;;5015436;28;20178;-90
2022/06/26 06:15:53;;;;;;;6.80;4.40;;;18.40;83.60;;;;;;5043141;28;20664;-90
2022/06/26 06:18:19;;;;;;;6.77;4.97;;;18.70;83.30;;;;;;5021893;28;20178;-90
2022/06/26 06:20:45;;;;;;;13.80;4.40;;;19.20;81.70;;;;;;5033503;28;20212;-90
2022/06/26 06:23:11;;;;;;;6.25;4.18;;;19.60;80.40;;;;;;5031595;28;20181;-89
2022/06/26 06:25:37;;;;;;;5.60;4.25;;;19.90;76.90;;;;;;5018458;28;20202;-90
2022/06/26 06:28:03;;;;;;;7.20;4.17;;;20.00;75.10;;;;;;5042546;28;20200;-90
2022/06/26 06:30:29;;;;;;;8.00;5.15;;;20.00;74.10;;;;;;5035049;28;20230;-89
2022/06/26 06:33:25;;;;;;;6.23;3.73;;;19.50;75.70;;;;;;5035064;28;20189;-90
2022/06/26 06:35:54;;;;;;;5.57;4.38;;;19.50;77.20;;;;;;5015298;28;20232;-91
2022/06/26 06:38:20;;;;;;;7.55;4.68;;;19.70;75.40;;;;;;5035217;28;20261;-91
2022/06/26 06:40:47;;;;;;;7.57;4.20;;;19.70;73.80;;;;;;5015409;28;20206;-91
2022/06/26 06:43:13;;;;;;;6.38;4.25;;;19.60;74.70;;;;;;5032123;28;20606;-91
2022/06/26 06:45:39;;;;;;;11.48;4.70;;;19.70;75.80;;;;;;5031614;28;20194;-90
2022/06/26 06:48:05;;;;;;;6.03;3.80;;;19.80;75.10;;;;;;5021873;28;20192;-90
2022/06/26 06:50:31;;;;;;;12.18;4.20;;;19.80;74.10;;;;;;5035214;28;20684;-90
2022/06/26 06:52:57;;;;;;;5.57;3.40;;;19.80;73.20;;;;;;5035525;28;20191;-91
2022/06/26 06:55:23;;;;;;;6.20;3.67;;;19.70;74.50;;;;;;5016950;28;20202;-90
2022/06/26 06:58:08;;;;;;;7.63;4.10;;;19.40;76.10;;;;;;5030533;28;20205;-90
2022/06/26 07:00:33;;;;;;;8.13;4.45;;;19.50;77.10;;;;;;5035193;28;20228;-90
2022/06/26 07:03:04;;;;;;;7.30;4.10;;;19.60;75.20;;;;;;5019330;28;20205;-90
2022/06/26 07:05:30;;;;;;;5.53;4.30;;;19.60;74.60;;;;;;5034826;28;20431;-90
2022/06/26 07:07:56;;;;;;;7.68;3.60;;;19.60;74.50;;;;;;5029732;28;20174;-89
2022/06/26 07:10:22;;;;;;;7.50;4.30;;;19.50;74.40;;;;;;5014918;28;20231;-90
2022/06/26 07:12:59;;;;;;;4.90;4.10;;;19.60;73.40;;;;;;5023165;28;20189;-91
2022/06/26 07:15:26;;;;;;;5.07;4.45;;;19.50;74.20;;;;;;5006191;28;20228;-90
2022/06/26 07:17:52;;;;;;;5.72;4.45;;;19.60;74.00;;;;;;5028442;28;20181;-90
2022/06/26 07:20:18;;;;;;;5.63;4.50;;;19.70;74.30;;;;;;5031505;28;20204;-90
2022/06/26 07:22:44;;;;;;;5.40;3.63;;;19.80;74.10;;;;;;5022628;28;20265;-89
2022/06/26 07:25:10;;;;;;;4.30;3.83;;;19.90;73.70;;;;;;5056281;28;20437;-90
2022/06/26 07:27:36;;;;;;;9.40;5.10;;;20.00;74.30;;;;;;5038369;28;20661;-89
2022/06/26 07:30:03;;;;;;;5.85;3.67;;;20.10;73.30;;;;;;5033632;28;20506;-90
2022/06/26 07:32:29;;;;;;;5.60;3.42;;;20.30;71.50;;;;;;5039250;28;20698;-90
2022/06/26 07:34:55;;;;;;;6.50;4.53;;;20.40;71.60;;;;;;5056958;28;20193;-90
2022/06/26 07:37:20;;;;;;;5.63;3.60;;;20.50;70.60;;;;;;5027797;28;20550;-90
2022/06/26 07:39:46;;;;;;;11.57;4.67;;;20.50;70.40;;;;;;5019522;28;20460;-91
2022/06/26 07:42:12;;;;;;;9.67;4.20;;;20.50;70.80;;;;;;5002621;28;20204;-90
2022/06/26 07:44:38;;;;;;;8.53;4.67;;;20.50;70.60;;;;;;5034491;28;20185;-90
2022/06/26 07:47:03;;;;;;;7.63;4.07;;;20.60;69.90;;;;;;5037723;28;20485;-90
2022/06/26 07:49:29;;;;;;;9.67;4.60;;;20.60;69.50;;;;;;5038245;28;20188;-89
2022/06/26 07:51:55;;;;;;;7.60;4.17;;;20.50;70.30;;;;;;5056600;28;20472;-89
2022/06/26 07:54:45;;;;;;;5.43;4.13;;;20.60;70.00;;;;;;5055875;28;20260;-90
2022/06/26 07:57:10;;;;;;;5.70;4.80;;;20.60;70.40;;;;;;5037539;28;20262;-91
2022/06/26 07:59:36;;;;;;;6.27;4.30;;;20.70;69.80;;;;;;5055811;28;20467;-90
2022/06/26 08:02:02;;;;;;;4.73;4.20;;;20.80;69.60;;;;;;5038248;28;20177;-90
2022/06/26 08:04:27;;;;;;;5.47;3.97;;;20.80;69.20;;;;;;5056951;28;20264;-90
2022/06/26 08:06:53;;;;;;;8.33;5.50;;;20.80;69.20;;;;;;5055506;28;20197;-89
2022/06/26 08:09:29;;;;;;;6.97;4.00;;;20.70;68.60;;;;;;5038179;28;20200;-89
2022/06/26 08:11:54;;;;;;;8.00;5.40;;;20.60;69.80;;;;;;5057200;28;20196;-89
2022/06/26 08:14:20;;;;;;;8.70;5.20;;;20.50;69.80;;;;;;5055729;28;20424;-89
2022/06/26 08:16:46;;;;;;;6.23;5.07;;;20.50;70.40;;;;;;5037453;28;20961;-91
2022/06/26 08:19:13;;;;;;;6.83;5.27;;;20.40;70.50;;;;;;5056102;28;20702;-91
2022/06/26 08:24:23;;;;;;;7.77;6.50;;;20.70;70.80;;;;;;5036259;28;20393;-91
2022/06/26 08:27:15;;;;;;;7.60;6.50;;;20.70;70.20;;;;;;5017328;28;20456;-90
2022/06/26 08:29:41;;;;;;;7.13;6.40;;;20.70;69.50;;;;;;5036776;28;20217;-91
2022/06/26 08:32:07;;;;;;;10.20;7.20;;;20.70;70.00;;;;;;5021522;28;20432;-90
2022/06/26 08:34:33;;;;;;;8.40;5.73;;;20.70;70.10;;;;;;5040862;28;20424;-90
2022/06/26 08:36:59;;;;;;;6.67;6.03;;;20.80;70.00;;;;;;5033020;28;20475;-90
2022/06/26 08:39:25;;;;;;;7.87;7.17;;;20.80;69.60;;;;;;5038072;28;20679;-91
2022/06/26 08:41:54;;;;;;;7.93;6.40;;;20.80;70.20;;;;;;5040644;28;20419;-92
2022/06/26 08:44:23;;;;;;;12.90;7.83;;;21.00;70.10;;;;;;5040776;28;20419;-92
2022/06/26 08:46:49;;;;;;;8.70;6.50;;;21.20;69.10;;;;;;5038884;28;20512;-93
2022/06/26 08:49:19;;;;;;;10.07;8.63;;;21.30;67.40;;;;;;5018389;28;20416;-92
2022/06/26 08:51:52;;;;;;;9.40;7.10;;;21.10;67.00;;;;;;5011053;28;20186;-90
2022/06/26 08:54:19;;;;;;;9.33;5.77;;;21.10;67.00;;;;;;5017725;28;20419;-90
2022/06/26 08:56:48;;;;;;;8.27;6.67;;;21.00;67.90;;;;;;5016868;28;20444;-90
2022/06/26 08:59:16;;;;;;;7.30;6.50;;;21.20;67.90;;;;;;5017701;28;20978;-90
2022/06/26 09:01:42;;;;;;;5.87;5.27;;;21.40;66.80;;;;;;5017532;28;20413;-90
2022/06/26 09:04:09;;;;;;;10.03;5.70;;;21.50;66.10;;;;;;5018066;28;20567;-90
2022/06/26 09:06:36;;;;;;;10.03;5.03;;;21.50;65.20;;;;;;5031630;28;20452;-90
2022/06/26 09:09:16;;;;;;;5.00;4.27;;;21.50;65.60;;;;;;5054726;28;20415;-90
2022/06/26 09:12:01;;;;;;;8.80;4.87;;;21.50;66.00;;;;;;5037098;28;20415;-90
2022/06/26 09:14:29;;;;;;;8.90;4.73;;;21.80;65.40;;;;;;5056233;28;20825;-90
2022/06/26 09:16:56;;;;;;;6.07;4.60;;;21.80;65.50;;;;;;5045089;28;20431;-89
2022/06/26 09:19:29;;;;;;;10.20;4.37;;;22.10;65.20;;;;;;5045257;28;20455;-90
2022/06/26 09:22:12;;;;;;;5.30;4.50;;;22.30;64.80;;;;;;5040605;28;20422;-89
2022/06/26 09:24:58;;;;;;;4.70;3.60;;;22.30;61.60;;;;;;5042357;28;20511;-89
2022/06/26 09:27:40;;;;;;;9.00;4.10;;;22.30;62.70;;;;;;5037264;28;20435;-90
2022/06/26 09:30:06;;;;;;;5.70;3.93;;;22.30;64.60;;;;;;5024122;28;20447;-90
2022/06/26 09:33:07;;;;;;;3.73;3.03;;;22.70;62.10;;;;;;5050395;28;20426;-90
2022/06/26 09:35:32;;;;;;;7.80;4.57;;;22.80;61.40;;;;;;5035811;28;20440;-90
2022/06/26 09:37:59;;;;;;;7.53;4.23;;;23.10;59.90;;;;;;5015926;28;20484;-90
2022/06/26 09:40:27;;;;;;;12.00;3.93;;;23.10;59.90;;;;;;5035013;28;20201;-90
2022/06/26 09:42:53;;;;;;;6.40;3.23;;;23.30;58.50;;;;;;5055130;28;20411;-90
2022/06/26 09:45:19;;;;;;;4.67;3.90;;;23.30;57.80;;;;;;5036638;28;20506;-90
2022/06/26 09:47:46;;;;;;;7.80;3.87;;;23.30;58.60;;;;;;5054291;28;20845;-90
2022/06/26 09:50:12;;;;;;;4.27;3.87;;;23.40;57.60;;;;;;5054927;28;20177;-90
2022/06/26 09:52:38;;;;;;;9.60;3.93;;;23.50;56.90;;;;;;5017727;28;20459;-89
2022/06/26 09:55:05;;;;;;;5.77;3.90;;;23.30;56.60;;;;;;5016091;28;20416;-89
2022/06/26 09:57:32;;;;;;;4.40;3.00;;;23.10;60.00;;;;;;5016289;28;20181;-89
2022/06/26 09:59:58;;;;;;;5.60;4.13;;;23.10;61.10;;;;;;5016087;28;20467;-89
2022/06/26 10:08:01;;;;;;;4.50;3.90;;;23.70;56.30;;;;;;5038463;28;20411;-89
2022/06/26 10:10:28;;;;;;;9.17;4.97;;;23.70;55.70;;;;;;5035932;28;20443;-88
2022/06/26 10:13:00;;;;;;;5.50;4.57;;;23.30;58.50;;;;;;5054419;28;20938;-91
2022/06/26 10:15:54;;;;;;;6.50;5.73;;;23.50;58.00;;;;;;5035531;28;20471;-90
2022/06/26 10:18:22;;;;;;;7.67;5.03;;;23.40;58.60;;;;;;5035219;28;20404;-89
2022/06/26 10:20:49;;;;;;;5.60;4.77;;;23.20;60.00;;;;;;5035749;28;20462;-89
2022/06/26 10:23:35;;;;;;;7.50;4.73;;;23.30;59.90;;;;;;5053692;28;20408;-88
2022/06/26 10:26:16;;;;;;;6.93;4.60;;;23.70;56.60;;;;;;5035377;28;20485;-88
2022/06/26 10:29:07;;;;;;;7.63;5.30;;;23.90;56.10;;;;;;5035230;28;20436;-88
2022/06/26 10:31:52;;;;;;;10.33;5.07;;;23.90;56.70;;;;;;5038839;28;20423;-88
2022/06/26 10:34:23;;;;;;;6.70;4.30;;;23.60;57.70;;;;;;5037679;28;20420;-88
2022/06/26 10:37:04;;;;;;;8.27;4.80;;;23.50;58.40;;;;;;5055562;28;20459;-88
2022/06/26 10:39:40;;;;;;;6.07;5.17;;;23.50;59.50;;;;;;5038856;28;21145;-89
2022/06/26 10:45:14;;;;;;;13.57;5.97;;;23.50;56.50;;;;;;5037032;28;20423;-88
2022/06/26 10:47:54;;;;;;;7.63;5.70;;;23.80;56.00;;;;;;5022002;28;20439;-88
2022/06/26 10:50:37;;;;;;;9.93;5.53;;;23.80;54.80;;;;;;5035961;28;20428;-88
2022/06/26 10:53:26;;;;;;;6.73;5.23;;;23.80;54.40;;;;;;5037621;28;20461;-89
2022/06/26 10:56:03;;;;;;;6.60;5.40;;;23.60;53.50;;;;;;5035719;28;20609;-88
2022/06/26 10:58:35;;;;;;;8.30;5.90;;;23.30;55.30;;;;;;5036644;28;20408;-88
2022/06/26 11:01:10;;;;;;;10.17;5.67;;;23.30;56.00;;;;;;5043647;28;20459;-88
2022/06/26 11:03:38;;;;;;;12.67;5.40;;;23.20;54.00;;;;;;5041941;28;20411;-88
2022/06/26 11:06:07;;;;;;;7.07;5.40;;;23.10;54.40;;;;;;5042347;28;20466;-89
2022/06/26 11:08:43;;;;;;;9.90;5.67;;;23.20;55.20;;;;;;5029967;28;20986;-88
2022/06/26 11:11:14;;;;;;;7.07;5.60;;;23.30;54.50;;;;;;5020902;28;20413;-88
2022/06/26 11:13:55;;;;;;;7.47;6.17;;;23.40;54.40;;;;;;5040656;28;20423;-88
2022/06/26 11:16:43;;;;;;;8.37;6.27;;;23.60;54.00;;;;;;5037605;28;20444;-88
2022/06/26 11:19:22;;;;;;;7.87;6.40;;;23.50;52.70;;;;;;5035034;28;20451;-88
2022/06/26 11:21:48;;;;;;;7.50;5.77;;;23.50;54.80;;;;;;5017886;28;20427;-89
2022/06/26 11:24:14;;;;;;;6.57;5.20;;;23.30;54.50;;;;;;5053352;28;20396;-88
2022/06/26 11:26:40;;;;;;;7.87;5.53;;;23.40;53.90;;;;;;5052944;28;20799;-87
2022/06/26 11:29:09;;;;;;;7.53;5.40;;;23.40;54.20;;;;;;5034420;28;20212;-88
2022/06/26 11:31:35;;;;;;;6.67;4.93;;;23.20;56.00;;;;;;5015533;28;20174;-89
2022/06/26 11:34:07;;;;;;;10.60;5.60;;;23.50;56.50;;;;;;5014897;28;20496;-89
2022/06/26 11:36:33;;;;;;;7.33;5.93;;;23.50;57.10;;;;;;5025260;28;20848;-89
2022/06/26 11:38:59;;;;;;;7.70;6.17;;;23.70;55.90;;;;;;5018156;28;20427;-88
2022/06/26 11:41:26;;;;;;;13.93;7.80;;;23.70;55.30;;;;;;5035116;28;20169;-88
2022/06/26 11:43:56;;;;;;;11.50;7.17;;;23.60;54.40;;;;;;5034356;28;20431;-88
2022/06/26 11:46:23;;;;;;;7.77;5.50;;;23.30;54.40;;;;;;5053662;28;20975;-88
2022/06/26 11:48:50;;;;;;;10.97;6.00;;;23.40;52.80;;;;;;5053724;28;20450;-88
2022/06/26 11:51:18;;;;;;;7.27;5.37;;;23.30;54.10;;;;;;5053424;28;20416;-88
2022/06/26 11:53:46;;;;;;;10.83;5.60;;;23.30;55.50;;;;;;5049236;28;20503;-88
2022/06/26 11:56:20;;;;;;;8.60;5.60;;;23.40;53.30;;;;;;4998628;28;20448;-87
2022/06/26 11:58:50;;;;;;;12.33;5.37;;;23.50;53.20;;;;;;5033730;28;20401;-88
2022/06/26 12:01:16;;;;;;;8.80;5.80;;;23.50;49.50;;;;;;5026032;28;20470;-88
2022/06/26 12:03:51;;;;;;;12.43;5.87;;;23.30;51.20;;;;;;5056761;28;20920;-89
2022/06/26 12:06:33;;;;;;;7.30;5.37;;;23.30;52.30;;;;;;5039459;28;20435;-88
2022/06/26 12:09:23;;;;;;;6.93;4.50;;;23.40;51.30;;;;;;5038442;28;20483;-88
2022/06/26 12:11:52;;;;;;;7.50;5.80;;;23.60;51.20;;;;;;5021878;28;20491;-88
2022/06/26 12:14:21;;;;;;;7.20;5.33;;;23.80;50.00;;;;;;5038056;28;20942;-88
2022/06/26 12:16:57;;;;;;;11.20;6.70;;;23.90;51.10;;;;;;5037676;28;20470;-88
2022/06/26 12:19:24;;;;;;;6.93;5.57;;;24.10;48.10;;;;;;5038557;28;20458;-88
2022/06/26 12:21:52;;;;;;;14.50;8.43;;;24.00;49.50;;;;;;5038107;28;20779;-88
2022/06/26 12:24:20;;;;;;;7.30;5.83;;;23.90;49.80;;;;;;5056184;28;20445;-88
2022/06/26 12:26:46;;;;;;;8.00;5.37;;;24.00;48.20;;;;;;5038035;28;20440;-88
2022/06/26 12:29:14;;;;;;;5.47;4.53;;;24.20;46.30;;;;;;5038190;28;20427;-88
2022/06/26 12:31:40;;;;;;;7.23;6.00;;;24.40;46.70;;;;;;5038124;28;20496;-88
2022/06/26 12:34:07;;;;;;;8.93;5.00;;;24.40;44.90;;;;;;5037804;28;20505;-88
2022/06/26 12:36:34;;;;;;;7.80;5.53;;;24.40;46.20;;;;;;5037065;28;20431;-88
2022/06/26 12:39:01;;;;;;;7.83;4.37;;;24.50;46.30;;;;;;5029021;28;20512;-88
2022/06/26 12:41:27;;;;;;;7.10;5.40;;;24.60;46.00;;;;;;5001746;28;20427;-88
2022/06/26 12:43:59;;;;;;;5.60;4.73;;;24.70;47.20;;;;;;5017821;28;20499;-88
2022/06/26 12:46:25;;;;;;;4.67;3.47;;;24.80;45.00;;;;;;5018023;28;20198;-88
2022/06/26 12:48:51;;;;;;;7.97;4.03;;;24.90;45.90;;;;;;5018614;28;20401;-87
2022/06/26 12:51:17;;;;;;;4.80;3.03;;;25.10;43.70;;;;;;5018364;28;20499;-88
2022/06/26 12:53:43;;;;;;;6.57;3.93;;;25.20;45.40;;;;;;5036167;28;20503;-88
2022/06/26 12:56:11;;;;;;;4.53;3.20;;;25.20;42.30;;;;;;5034947;28;20784;-89
2022/06/26 12:58:39;;;;;;;6.50;3.10;;;25.10;42.70;;;;;;5034470;28;20448;-88
2022/06/26 13:01:06;;;;;;;5.40;3.70;;;24.90;42.90;;;;;;5035144;28;20462;-88
2022/06/26 13:03:32;;;;;;;5.10;3.37;;;24.60;44.30;;;;;;5034737;28;20413;-88